Tiempo atmosférico en la estación meteorológica de Aranda De Duero, Burgos (790 m.)



Fecha
DESCASC
Temp. máxima en grados centígrados (hora)
DESCASC
Temp. mínima en grados centígrados (hora)
DESCASC
Temp. media en grados centígrados
DESCASC
Racha de viento máxima en m/sg (hora)
DESCASC
Velocidad máxima media en intervalos de 10 minutos(hora)
DESCASC
Precipitaciones diarias en mm
DESCASC
Precipitaciones de 00:00 a 06:00 en mm
DESCASC
Precipitaciones de 06:00 a 12:00 en mm
DESCASC
Precipitaciones de 12:00 a 18:00 en mm
DESCASC
Precipitaciones de 18:00 a 24:00 en mm
DESCASC
14-12-2019 11.4 (14:20) 8.2 (07:40) 9.8 14.17 (06:00) 6.67 (06:00) 0 0 0 0 0
13-12-2019 13.6 (14:40) 9.7 (09:40) 11.7 19.72 (09:50) 8.89 (10:10) 0.2 0.2 0 0 0
12-12-2019 10.4 (23:59) 2.8 (01:50) 6.6 15.83 (15:30) 7.22 (13:50) 0.4 0 0.2 0.2 0
11-12-2019 8 (16:30) 0.3 (00:00) 4.2 11.11 (16:10) 4.17 (16:10) 1.8 0 1.8 0 0
10-12-2019 8.6 (16:10) -3.6 (-00:0) 2.5 3.33 (15:30) 1.67 (09:40) 0 0 0 0 0
09-12-2019 9.6 (15:10) -1.2 (-00:0) 4.2 8.06 (03:50) 3.89 (03:40) 0 0 0 0 0
08-12-2019 7.6 (19:30) -2.3 (-00:0) 2.6 3.61 (10:30) 2.22 (10:40) 2.2 0 0 2.2 0
07-12-2019 10.3 (16:50) -2.6 (-00:0) 3.9 4.44 (15:00) 1.67 (14:10) 0 0 0 0 0
06-12-2019 11 (15:30) -1.2 (-00:0) 4.9 6.11 (11:30) 3.33 (11:30) 0 0 0 0 0
05-12-2019 12.1 (16:00) 1.1 (00:00) 6.6 6.39 (15:20) 3.61 (15:20) 0 0 0 0 0
04-12-2019 9.9 (16:20) 0.6 (00:00) 5.2 8.89 (23:10) 3.61 (05:10) 0 0 0 0 0
03-12-2019 6 (16:30) -4.8 (-00:0) 0.6 8.33 (22:10) 4.17 (17:00) 0 0 0 0 0
02-12-2019 9.7 (15:30) -1.4 (-00:0) 4.1 10.28 (17:30) 4.44 (13:50) 0 0 0 0 0
01-12-2019 8 (14:40) 2.5 (00:00) 5.3 5.28 (10:00) 2.5 (10:00) 0.2 0 0 0.2 0
30-11-2019 15.1 (11:50) 4.3 (00:00) 9.7 13.89 (15:30) 6.94 (13:00) 4.6 0.8 0 3.4 0.4
29-11-2019 14.2 (14:30) 5.6 (00:00) 9.9 6.94 (01:10) 3.33 (00:30) 0 0 0 0 0
28-11-2019 12.1 (15:10) 8.4 (00:00) 10.3 11.94 (13:20) 6.11 (10:20) 0 0 0 0 0
27-11-2019 11.6 (15:10) 7.5 (00:00) 9.6 14.72 (01:00) 6.94 (05:40) 0.4 0.4 0 0 0
26-11-2019 16.6 (16:00) 8.5 (00:00) 12.6 16.67 (19:40) 8.61 (19:20) 4.2 0 0.6 0 3.6
25-11-2019 12.8 (12:50) 8.3 (00:00) 10.6 11.67 (05:20) 5.28 (05:20) 1.2 1.2 0 0 0
24-11-2019 8.4 (16:00) 3 (00:00) 5.7 8.61 (12:30) 4.17 (13:30) 0 0 0 0 0
23-11-2019 9.9 (14:50) 4 (00:00) 6.9 16.39 (06:30) 6.94 (00:20) 0.2 0.2 0 0 0
22-11-2019 12.9 (15:40) 4.4 (00:00) 8.6 16.67 (16:40) 7.78 (16:40) 1.8 0.2 0.6 0.8 0.2
21-11-2019 9.8 (15:50) 2.7 (00:00) 6.3 8.61 (15:20) 4.44 (11:50) 0 0 0 0 0
20-11-2019 7.1 (14:50) -0.7 (-00:0) 3.2 8.61 (16:10) 3.61 (10:00) 1.6 0 0 1 0.6
19-11-2019 8.5 (14:30) -3.4 (-00:0) 2.5 5.28 (14:40) 2.5 (14:40) -- 0 -- 0 0
18-11-2019 6.6 (13:50) -1 (-00:0) 2.8 8.89 (16:20) 4.17 (15:50) 0 0 0 0 0
17-11-2019 8 (16:20) 0.5 (00:00) 4.3 10 (14:30) 3.89 (14:30) 0.4 0 0.2 0 0.2
16-11-2019 8 (15:40) -1.9 (-00:0) 3.1 10 (13:50) 4.72 (10:50) 0 0 0 0 0
15-11-2019 7.3 (13:50) 1.7 (00:00) 4.5 14.72 (13:30) 4.72 (13:40) 0 0 0 0 0

Gráficas

Temp. máximas Temp. mínimas Temp. medias Precipitaciones Rachas de viento máximas Velocidades máximas media en intervalos de 10 minutos

Datos horarios

Fecha y hora oficial Temperatura (ºC) Velocidad del viento (km/h) Dirección del viento Racha (km/h) Dirección de racha Precipitación (mm) Presión (hPa) Tendencia (hPa) Humedad (%)
2019-12-14 23:00:00 9.1 18 Sudoeste 36 Sudoeste 0 925.6 -0.3 67
2019-12-14 22:00:00 9.1 17 Sudoeste 29 Sudoeste 0 925.7 -0.3 69
2019-12-14 21:00:00 9 15 Sudoeste 24 Sudoeste 0 925.8 0 72
2019-12-14 20:00:00 9.1 12 Sudoeste 24 Oeste 0 925.9 0.4 72
2019-12-14 19:00:00 9.4 10 Sudoeste 29 Oeste 0 926 0.4 70
2019-12-14 18:00:00 9.6 12 Oeste 33 Sudoeste 0 925.8 0 71
2019-12-14 17:00:00 10.4 14 Sudoeste 28 Sudoeste 0 925.5 -0.7 66
2019-12-14 16:00:00 10.6 13 Sudoeste 33 Sudoeste 0 925.6 -1.3 66
2019-12-14 15:00:00 10.4 17 Sudoeste 40 Sudoeste 0 925.8 -1.7 65
2019-12-14 14:00:00 10.7 23 Sudoeste 39 Sudoeste 0 926.2 -1.6 63
2019-12-14 13:00:00 10.2 18 Sudoeste 37 Sudoeste 0 926.9 -0.9 65
2019-12-14 12:00:00 9.8 18 Sudoeste 33 Sudoeste 0 927.5 0.1 65
2019-12-14 11:00:00 8.6 17 Sudoeste 33 Sudoeste 0 927.8 0.8 68
2019-12-14 10:00:00 8.2 14 Sudoeste 27 Sudoeste 0 927.8 1.1 70
2019-12-14 09:00:00 8.2 13 Sudoeste 41 Sudoeste 0 927.4 1 70
2019-12-14 08:00:00 8.3 19 Sudoeste 39 Sudoeste 0 927 0.2 70
2019-12-14 07:00:00 8.4 22 Sudoeste 41 Sudoeste 0 926.7 -0.3 71
2019-12-14 06:00:00 8.5 24 Sudoeste 51 Sudoeste 0 926.4 -0.4 71
2019-12-14 05:00:00 8.5 13 Sudoeste 29 Oeste 0 926.8 0.3 74
2019-12-14 04:00:00 8.6 13 Oeste 35 Oeste 0 927 0.5 74
2019-12-14 03:00:00 8.7 16 Sudoeste 44 Sudoeste 0 926.8 0.8 73
2019-12-14 02:00:00 8.9 15 Oeste 37 Oeste 0 926.5 0.7 72
2019-12-14 01:00:00 9.3 15 Oeste 43 Oeste 0 926.5 0.7 70
2019-12-14 00:00:00 9.7 15 Oeste 46 Oeste 0 926 0.6 72
2019-12-13 23:00:00 9.7 15 Oeste 51 Oeste 0 925.8 0.7 74
2019-12-13 22:00:00 9.9 16 Oeste 41 Oeste 0 925.8 1 75
2019-12-13 21:00:00 10.1 20 Sudoeste 45 Oeste 0 925.4 1.2 75
2019-12-13 20:00:00 10.1 14 Sudoeste 39 Oeste 0 925.1 1.1 75
2019-12-13 19:00:00 10.7 17 Sudoeste 49 Oeste 0 924.8 1.3 73
2019-12-13 18:00:00 11.4 20 Oeste 55 Oeste 0 924.2 0.7 72
2019-12-13 17:00:00 12.2 23 Oeste 61 Oeste 0 924 0.3 70
2019-12-13 16:00:00 12.7 23 Oeste 55 Oeste 0 923.5 -0.2 69
2019-12-13 15:00:00 13.6 20 Oeste 50 Oeste 0 923.5 -0.5 66
2019-12-13 14:00:00 12.8 19 Oeste 59 Oeste 0 923.7 0.4 68
2019-12-13 13:00:00 12.8 21 Oeste 54 Oeste 0 923.7 1.7 68
2019-12-13 12:00:00 11.1 24 Sudoeste 60 Sudoeste 0 924 1.6 72
2019-12-13 11:00:00 10.7 26 Sudoeste 69 Oeste 0 923.3 1.7 70
2019-12-13 10:00:00 9.8 30 Sudoeste 71 Oeste 0 922 0.7 73
2019-12-13 09:00:00 9.9 26 Oeste 59 Oeste 0 922.4 1.8 72
2019-12-13 08:00:00 10.2 28 Sudoeste 59 Oeste 0 921.6 0.6 74
2019-12-13 07:00:00 10.3 25 Sudoeste 57 Oeste 0 921.3 0 74
2019-12-13 06:00:00 10.4 22 Sudoeste 53 Sudoeste 0 920.6 0 76
2019-12-13 05:00:00 10.4 19 Sudoeste 48 Sudoeste 0 921 0.8 79
2019-12-13 04:00:00 10 18 Oeste 53 Oeste 0.2 921.3 1.1 83
2019-12-13 03:00:00 10.7 22 Oeste 53 Oeste 0 920.6 0.5 77
2019-12-13 02:00:00 10.6 23 Oeste 54 Oeste 0 920.2 0 77
2019-12-13 01:00:00 10.5 21 Sudoeste 54 Oeste 0 920.2 0.2 78
2019-12-13 00:00:00 10.4 22 Sudoeste 49 Oeste 0 920.1 -0.3 78
2019-12-12 23:00:00 10.1 24 Sudoeste 51 Sudoeste 0 920.2 -0.3 79
2019-12-12 22:00:00 9.8 21 Oeste 51 Sudoeste 0 920 -0.3 79
2019-12-12 21:00:00 9.2 19 Oeste 51 Oeste 0 920.4 -0.1 80
2019-12-12 20:00:00 8.5 21 Sudoeste 52 Oeste 0 920.5 -0.4 82
2019-12-12 19:00:00 8.1 23 Sudoeste 54 Oeste 0 920.3 -1 81
2019-12-12 18:00:00 7.5 23 Oeste 56 Oeste 0 920.5 -1.5 82
2019-12-12 17:00:00 7.1 24 Sudoeste 57 Sudoeste 0 920.9 -2.2 82
2019-12-12 16:00:00 6.7 22 Oeste 57 Oeste 0 921.3 -3.2 82
2019-12-12 15:00:00 6.2 22 Sudoeste 51 Sudoeste 0 922 -3.9 83
2019-12-12 14:00:00 6.1 24 Sudoeste 54 Oeste 0 923.1 -3.9 80
2019-12-12 13:00:00 6 24 Sudoeste 49 Sudoeste 0.2 924.5 -3.1 81
2019-12-12 12:00:00 5.7 22 Sudoeste 49 Sudoeste 0 925.9 -1.8 81
2019-12-12 11:00:00 5.3 19 Sudoeste 46 Sudoeste 0.2 927 -1.1 83
2019-12-12 10:00:00 4.8 20 Sudoeste 41 Sudoeste 0 927.6 -1.1 83
2019-12-12 09:00:00 4.5 19 Sudoeste 37 Sudoeste 0 927.7 -1.1 80
2019-12-12 08:00:00 4.2 18 Sudoeste 31 Sudoeste 0 928.1 -1.6 80
2019-12-12 07:00:00 4.1 13 Sudoeste 27 Sudoeste 0 928.7 -1.4 80
2019-12-12 06:00:00 3.8 14 Sudoeste 30 Sudoeste 0 928.8 -1.7 80
2019-12-12 05:00:00 3.6 13 Sudoeste 31 Oeste 0 929.7 -1.5 80
2019-12-12 04:00:00 3.1 13 Oeste 35 Oeste 0 930.1 -1.4 80
2019-12-12 03:00:00 3.1 14 Sudoeste 31 Sudoeste 0 930.5 -1.5 81
2019-12-12 02:00:00 2.9 12 Oeste 31 Oeste 0 931.2 -1.1 80
2019-12-12 01:00:00 3 13 Oeste 31 Oeste 0 931.5 -0.8 78
2019-12-12 00:00:00 3.1 12 Sudoeste 27 Oeste 0 932 -0.3 77
2019-12-11 23:00:00 2.9 6 Sudoeste 21 Oeste 0 932.3 0 76
2019-12-11 22:00:00 3.3 9 Oeste 27 Oeste 0 932.3 0 72
2019-12-11 21:00:00 4.1 12 Oeste 32 Oeste 0 932.3 0.4 68
2019-12-11 20:00:00 3.9 8 Oeste 22 Oeste 0 932.3 0.4 68
2019-12-11 19:00:00 4.2 8 Oeste 27 Oeste 0 932.3 1 65
2019-12-11 18:00:00 5.6 9 Oeste 33 Oeste 0 931.9 0.8 63
2019-12-11 17:00:00 7.2 12 Oeste 40 Oeste 0 931.9 0.5 59
2019-12-11 16:00:00 7.7 12 Oeste 31 Oeste 0 931.3 -0.3 66
2019-12-11 15:00:00 6.8 8 Noroeste 25 Oeste 0 931.1 -0.7 72
2019-12-11 14:00:00 5.4 5 Oeste 28 Noroeste 0 931.4 0.2 82
2019-12-11 13:00:00 4.8 7 Oeste 19 Oeste 0 931.6 1.2 86
2019-12-11 12:00:00 4.1 6 Oeste 20 Oeste 0 931.8 1.5 86
2019-12-11 11:00:00 3.7 7 Oeste 15 Oeste 0 931.2 1.4 86
2019-12-11 10:00:00 3.4 0 Calma 26 Oeste 0.6 930.4 0.7 84
2019-12-11 09:00:00 3.6 8 Oeste 22 Oeste 1 930.3 0.3 81
2019-12-11 08:00:00 4.2 5 Noroeste 14 Sudoeste 0.2 929.8 -0.8 77
2019-12-11 07:00:00 3.2 4 Oeste 13 Sudoeste 0 929.7 -1.4 83
2019-12-11 06:00:00 2.4 2 Este 10 Este 0 930 -1.8 85
2019-12-11 05:00:00 1.6 2 Nordeste 9 Sudeste 0 930.6 -1.7 86
2019-12-11 04:00:00 0.9 3 Este 10 Este 0 931.1 -1.5 86
2019-12-11 03:00:00 0.4 4 Este 9 Este 0 931.8 -1.2 86
2019-12-11 02:00:00 0.7 3 Este 15 Este 0 932.3 -1 85
2019-12-11 01:00:00 1.3 8 Sudeste 15 Sudeste 0 932.6 -1 86
2019-12-11 00:00:00 0.7 4 Este 10 Este 0 933 -1.2 86
2019-12-10 23:00:00 0.2 2 Este 6 Este 0 933.3 -0.9 84
2019-12-10 22:00:00 1.1 2 Este 5 Este 0 933.6 -0.4 83
2019-12-10 21:00:00 2.2 0 Calma 4 Norte 0 934.2 -0.2 82
2019-12-10 20:00:00 3.1 2 Sudeste 4 Sudeste 0 934.2 -0.3 80
2019-12-10 19:00:00 4.8 2 Sudeste 4 Este 0 934 -1 77
2019-12-10 18:00:00 6.7 0 Calma 3 Este 0 934.4 -1.1 72
2019-12-10 17:00:00 8 2 Norte 9 Noroeste 0 934.5 -1.8 65
2019-12-10 16:00:00 8.5 4 Sudoeste 12 Oeste 0 935 -2.3 63
2019-12-10 15:00:00 7.5 4 Oeste 10 Sudoeste 0 935.5 -3 64
2019-12-10 14:00:00 4.7 0 Calma 6 Noroeste 0 936.3 -2.5 87
2019-12-10 13:00:00 2.3 0 Calma 5 Este 0 937.3 -1.2 88
2019-12-10 12:00:00 0.3 0 Calma 7 Este 0 938.5 0.3 88
2019-12-10 11:00:00 -1.4 3 Este 7 Este 0 938.8 0.6 88
2019-12-10 10:00:00 -2.6 5 Sudeste 11 Sudeste 0 938.5 0.2 88
2019-12-10 09:00:00 -3.3 5 Sudeste 8 Sudeste 0 938.2 -0.4 88
2019-12-10 08:00:00 -3 2 Nordeste 6 Este 0 938.2 -0.3 88
2019-12-10 07:00:00 -3.2 2 Este 4 Este 0 938.3 -0.7 87
2019-12-10 06:00:00 -3.1 0 Calma 5 Oeste 0 938.6 -0.7 87
2019-12-10 05:00:00 -2.7 0 Calma 4 Este 0 938.5 -1.2 87
2019-12-10 04:00:00 -2.5 2 Sudoeste 8 Sudoeste 0 939 -0.8 87
2019-12-10 03:00:00 -2.3 3 Sudoeste 6 Sudoeste 0 939.3 -0.5 86
2019-12-10 02:00:00 -1.8 0 Calma 5 Oeste 0 939.7 0.2 86
2019-12-10 01:00:00 -1.5 3 Sudoeste 8 Oeste 0 939.8 0.1 86
2019-12-10 00:00:00 -1.2 3 Sudeste 7 Sudoeste 0 939.8 0.3 86
2019-12-09 23:00:00 -0.9 2 Noroeste 9 Sudoeste 0 939.5 0.5 85
2019-12-09 22:00:00 -0.1 0 Calma 6 Sudoeste 0 939.7 1.1 84
2019-12-09 21:00:00 0.9 2 Sudeste 6 Sudeste 0 939.5 1.2 82
2019-12-09 20:00:00 2.3 3 Sur 6 Sudoeste 0 939 1 80
2019-12-09 19:00:00 4.2 2 Sudoeste 7 Sudoeste 0 938.6 0.9 76
2019-12-09 18:00:00 6.6 0 Calma 8 Oeste 0 938.3 0.7 72
2019-12-09 17:00:00 8.3 4 Oeste 13 Oeste 0 938 0.4 63
2019-12-09 16:00:00 9.5 6 Oeste 18 Oeste 0 937.7 -0.4 57
2019-12-09 15:00:00 9.5 7 Oeste 19 Oeste 0 937.6 -0.6 59
2019-12-09 14:00:00 8.7 5 Oeste 21 Oeste 0 937.6 -0.3 62
2019-12-09 13:00:00 7.9 6 Oeste 21 Noroeste 0 938.1 0.9 70
2019-12-09 12:00:00 6.8 7 Noroeste 20 Noroeste 0 938.2 1.6 75
2019-12-09 11:00:00 5.7 9 Noroeste 19 Noroeste 0 937.9 1.4 82
2019-12-09 10:00:00 4.7 4 Noroeste 11 Noroeste 0 937.2 0.9 86
2019-12-09 09:00:00 3.5 0 Calma 11 Oeste 0 936.6 0.4 86
2019-12-09 08:00:00 4.4 3 Oeste 8 Oeste 0 936.5 0.3 87
2019-12-09 07:00:00 4.2 4 Oeste 7 Oeste 0 936.3 -0.2 85
2019-12-09 06:00:00 5.2 4 Oeste 11 Oeste 0 936.2 0.6 85
2019-12-09 05:00:00 5.8 9 Sudoeste 22 Oeste 0 936.2 0.7 85
2019-12-09 04:00:00 6 9 Oeste 29 Oeste 0 936.5 0.7 87
2019-12-09 03:00:00 5.8 3 Noroeste 10 Oeste 0 935.6 0.7 88
2019-12-09 02:00:00 5.7 4 Sudoeste 9 Oeste 0 935.5 0.7 88
2019-12-09 01:00:00 6.2 5 Sudoeste 9 Sudoeste 0 935.8 1 88
2019-12-09 00:00:00 6.5 3 Sudoeste 5 Sudoeste 0 934.9 0.3 88
2019-12-08 23:00:00 7.2 3 Oeste 7 Sudoeste 0 934.8 0.9 88
2019-12-08 22:00:00 7.3 0 Calma 6 Sudoeste 0 934.8 1.6 88
2019-12-08 21:00:00 7.4 0 Calma 5 Noroeste 0 934.6 1.7 88
2019-12-08 20:00:00 7.5 0 Calma 6 Noroeste 0 933.9 1.1 88
2019-12-08 19:00:00 7.5 3 Oeste 12 Oeste 0 933.2 0.6 88
2019-12-08 18:00:00 7.2 4 Oeste 10 Oeste 1 932.9 0.2 87
2019-12-08 17:00:00 6.7 0 Calma 4 Norte 0.2 932.8 -0.2 87
2019-12-08 16:00:00 6.3 0 Calma 4 Este 0.6 932.6 -1.1 86
2019-12-08 15:00:00 5.9 3 Nordeste 10 Este 0.4 932.7 -1.1 86
2019-12-08 14:00:00 5.3 3 Sur 7 Sur 0 933 -1.1 84
2019-12-08 13:00:00 4.5 0 Calma 9 Sudeste 0 933.7 -0.3 84
2019-12-08 12:00:00 3.3 4 Sudeste 10 Este 0 933.8 0 84
2019-12-08 11:00:00 1.7 6 Este 13 Este 0 934.1 0.6 86
2019-12-08 10:00:00 0.4 3 Sudeste 9 Este 0 934 0.5 87
2019-12-08 09:00:00 -0.6 4 Este 11 Este 0 933.8 0.8 87
2019-12-08 08:00:00 -2 3 Sudeste 7 Este 0 933.5 0.4 87
2019-12-08 07:00:00 -1.8 2 Este 9 Sudeste 0 933.5 -0.1 87
2019-12-08 06:00:00 -1.8 5 Este 9 Sudeste 0 933 -0.6 87
2019-12-08 05:00:00 -1.3 4 Este 8 Este 0 933.1 -0.3 87
2019-12-08 04:00:00 -1.8 0 Calma 4 Este 0 933.6 -0.5 86
2019-12-08 03:00:00 -1 0 Calma 7 Sudeste 0 933.6 -0.7 86
2019-12-08 02:00:00 -0.4 6 Este 12 Sudeste 0 933.4 -0.6 86
2019-12-08 01:00:00 -0.4 4 Este 9 Sudeste 0 934.1 0.3 86
2019-12-08 00:00:00 -0.4 0 Calma 5 Este 0 934.3 0.9 84
2019-12-07 23:00:00 0.2 2 Este 5 Este 0 934 0.9 84
2019-12-07 22:00:00 1.1 0 Calma 5 Este 0 933.8 1.3 82
2019-12-07 21:00:00 2.4 3 Este 5 Este 0 933.4 1.1 82
2019-12-07 20:00:00 3.5 3 Este 6 Este 0 933.1 1.1 80
2019-12-07 19:00:00 5.2 0 Calma 5 Sur 0 932.5 0.4 75
2019-12-07 18:00:00 8.1 0 Calma 8 Sudoeste 0 932.3 0.3 69
2019-12-07 17:00:00 10.3 4 Sudoeste 10 Sudoeste 0 932 -0.4 62
2019-12-07 16:00:00 10 5 Oeste 14 Oeste 0 932.1 -0.9 62
2019-12-07 15:00:00 9.1 5 Oeste 16 Noroeste 0 932 -1.6 65
2019-12-07 14:00:00 7.9 6 Sudoeste 11 Oeste 0 932.4 -1.4 72
2019-12-07 13:00:00 5.5 3 Nordeste 10 Este 0 933 -0.3 79
2019-12-07 12:00:00 2.9 5 Este 8 Este 0 933.6 0.5 82
2019-12-07 11:00:00 0.4 3 Sudeste 6 Sudeste 0 933.8 0.8 86
2019-12-07 10:00:00 -1.4 3 Sudeste 9 Este 0 933.3 0.8 87
2019-12-07 09:00:00 -2.5 4 Sudeste 8 Este 0 933.1 1 87
2019-12-07 08:00:00 -2.4 3 Este 5 Este 0 933 0.9 87
2019-12-07 07:00:00 -2.1 0 Calma 9 Sudeste 0 932.5 0.1 87
2019-12-07 06:00:00 -1.6 2 Este 8 Sudeste 0 932.1 -0.6 87
2019-12-07 05:00:00 -1.1 4 Este 9 Nordeste 0 932.1 -0.4 87
2019-12-07 04:00:00 -1.4 0 Calma 5 Sur 0 932.4 -0.5 87
2019-12-07 03:00:00 -0.8 3 Sudoeste 7 Sudeste 0 932.7 0 87
2019-12-07 02:00:00 -0.3 3 Nordeste 9 Sudeste 0 932.5 0.2 86
2019-12-07 01:00:00 -0.9 2 Este 5 Este 0 932.9 0.8 85
2019-12-07 00:00:00 -0.5 0 Calma 5 Este 0 932.7 0.9 84
2019-12-06 23:00:00 0.1 2 Norte 5 Este 0 932.3 0.9 84
2019-12-06 22:00:00 0.9 3 Este 6 Este 0 932.1 1.2 83
2019-12-06 21:00:00 1.7 0 Calma 6 Este 0 931.8 1.2 81
2019-12-06 20:00:00 3.2 0 Calma 3 Este 0 931.4 0.8 78
2019-12-06 19:00:00 5.3 0 Calma -- -- 0 930.9 0.4 73
2019-12-06 18:00:00 8.6 0 Calma 7 Noroeste 0 930.6 0 68
2019-12-06 17:00:00 10.2 2 Oeste 9 Oeste 0 930.6 -0.6 61
2019-12-06 16:00:00 10.6 4 Oeste 12 Oeste 0 930.5 -1.2 59
2019-12-06 15:00:00 10 4 Sudoeste 12 Este 0 930.6 -1.7 62
2019-12-06 14:00:00 9.2 5 Este 17 Este 0 931.2 -1.4 63
2019-12-06 13:00:00 8.5 8 Este 20 Este 0 931.7 -0.6 66
2019-12-06 12:00:00 7.5 10 Este 22 Este 0 932.3 0.5 72
2019-12-06 11:00:00 5.2 9 Este 20 Sudeste 0 932.6 1 80
2019-12-06 10:00:00 2.3 6 Este 12 Sudeste 0 932.3 1.2 87
2019-12-06 09:00:00 -0.2 8 Sudeste 12 Sudeste 0 931.8 0.8 87
2019-12-06 08:00:00 -0.6 3 Sudoeste 10 Este 0 931.6 0.7 87
2019-12-06 07:00:00 -0.2 5 Este 9 Este 0 931.1 0.2 87
2019-12-06 06:00:00 -0.2 0 Calma 11 Sudeste 0 931 0.1 86
2019-12-06 05:00:00 0.7 4 Este 9 Este 0 930.9 0 87
2019-12-06 04:00:00 0.2 6 Sudeste 10 Sudeste 0 930.9 -0.1 87
2019-12-06 03:00:00 0 2 Oeste 8 Este 0 930.9 -0.2 85
2019-12-06 02:00:00 0.1 4 Sur 12 Oeste 0 930.9 -0.3 84
2019-12-06 01:00:00 1.1 2 Sudeste 6 Este 0 931 0 84
2019-12-06 00:00:00 1.7 3 Este 5 Este 0 931.1 0.5 83
2019-12-05 23:00:00 2.3 0 Calma 4 Sur 0 931.2 1.2 82
2019-12-05 22:00:00 2.3 2 Sudoeste 6 Sur 0 931 2 79
2019-12-05 21:00:00 4.4 2 Sudeste 15 Este 0 930.6 2 76
2019-12-05 20:00:00 5 6 Este 11 Nordeste 0 930 1.9 78
2019-12-05 19:00:00 6.4 0 Calma 7 Nordeste 0 929 1.1 72
2019-12-05 18:00:00 9.4 0 Calma 14 Sudeste 0 928.6 0.6 64
2019-12-05 17:00:00 10.9 6 Sudeste 22 Norte 0 928.1 0 56
2019-12-05 16:00:00 12.1 7 Nordeste 23 Este 0 927.9 -0.5 51
2019-12-05 15:00:00 11.5 8 Nordeste 23 Nordeste 0 928 -0.9 51
2019-12-05 14:00:00 10.7 8 Nordeste 19 Sudeste 0 928.1 -0.8 54
2019-12-05 13:00:00 9.8 11 Nordeste 21 Nordeste 0 928.4 0.4 57
2019-12-05 12:00:00 8.4 5 Este 14 Este 0 928.9 1.7 63
2019-12-05 11:00:00 6.4 3 Este 8 Este 0 928.9 2.3 73
2019-12-05 10:00:00 3.6 3 Norte 6 Noroeste 0 928 2.3 84
2019-12-05 09:00:00 1.9 0 Calma 6 Este 0 927.2 1.9 85
2019-12-05 08:00:00 1.2 0 Calma 5 Sudoeste 0 926.6 1.7 84
2019-12-05 07:00:00 1.8 0 Calma 6 Sudoeste 0 925.7 1.3 84
2019-12-05 06:00:00 1.6 4 Sudoeste 6 Sudoeste 0 925.3 1 83
2019-12-05 05:00:00 1.8 0 Calma 7 Este 0 924.9 1.1 81
2019-12-05 04:00:00 1.6 2 Oeste 7 Este 0 924.4 1 79
2019-12-05 03:00:00 3.2 3 Este 9 Nordeste 0 924.3 1.8 75
2019-12-05 02:00:00 4.3 3 Oeste 18 Este 0 923.8 2 71
2019-12-05 01:00:00 4.8 5 Nordeste 23 Norte 0 923.4 1.8 68
2019-12-05 00:00:00 4.4 3 Nordeste 32 Norte 0 922.5 1.1 70
2019-12-04 23:00:00 4.6 8 Noroeste 18 Norte 0 921.8 0.5 70
2019-12-04 22:00:00 5.2 7 Noroeste 13 Noroeste 0 921.6 0.8 70
2019-12-04 21:00:00 6 4 Noroeste 13 Norte 0 921.4 1.1 71
2019-12-04 20:00:00 7.8 2 Norte 13 Norte 0 921.3 1.4 67
2019-12-04 19:00:00 8.3 2 Nordeste 7 Noroeste 0 920.8 1.1 68
2019-12-04 18:00:00 8.7 4 Norte 11 Norte 0 920.3 0.7 67
2019-12-04 17:00:00 9.5 3 Oeste 16 Noroeste 0 919.9 -0.3 66
2019-12-04 16:00:00 9.7 5 Norte 20 Noroeste 0 919.7 -1.1 64
2019-12-04 15:00:00 9 9 Noroeste 23 Noroeste 0 919.6 -1.6 64
2019-12-04 14:00:00 8 5 Sudoeste 10 Oeste 0 920.2 -1.1 74
2019-12-04 13:00:00 6.9 3 Sudoeste 8 Sudoeste 0 920.8 -0.6 74
2019-12-04 12:00:00 5.9 4 Sudoeste 8 Oeste 0 921.2 0.3 75
2019-12-04 11:00:00 4.1 3 Este 9 Sudeste 0 921.3 0.2 80
2019-12-04 10:00:00 2 4 Sudeste 10 Este 0 921.4 0.6 83
2019-12-04 09:00:00 0.9 4 Este 9 Este 0 920.9 -0.2 84
2019-12-04 08:00:00 1.2 3 Sudeste 13 Este 0 921.1 -0.5 80
2019-12-04 07:00:00 2.5 7 Este 19 Este 0 920.8 -1.4 79
2019-12-04 06:00:00 2.2 5 Nordeste 28 Este 0 921.1 -1.6 79
2019-12-04 05:00:00 2.3 11 Este 27 Este 0 921.6 -1.8 78
2019-12-04 04:00:00 2.5 12 Este 24 Este 0 922.2 -1.9 76
2019-12-04 03:00:00 1.9 9 Este 25 Este 0 922.7 -1.7 77
2019-12-04 02:00:00 1.7 10 Este 28 Este 0 923.4 -1.3 78
2019-12-04 01:00:00 1.7 12 Este 24 Este 0 924.1 -0.2 77
2019-12-04 00:00:00 1.5 8 Este 29 Este 0 924.4 0.3 78
2019-12-03 23:00:00 1.6 10 Este 30 Este 0 924.7 0.7 77
2019-12-03 22:00:00 1.4 9 Este 22 Este 0 924.3 0.5 77
2019-12-03 21:00:00 1.6 9 Este 18 Este 0 924.1 0.5 77
2019-12-03 20:00:00 1.6 5 Este 22 Sudeste 0 924 0.5 76
2019-12-03 19:00:00 2.6 11 Este 23 Este 0 923.8 0.3 72
2019-12-03 18:00:00 3.9 12 Sudeste 26 Este 0 923.6 -0.1 67
2019-12-03 17:00:00 5.8 15 Sudeste 26 Sudeste 0 923.5 -0.9 59
2019-12-03 16:00:00 5.8 5 Este 17 Sudeste 0 923.5 -1.9 60
2019-12-03 15:00:00 5.1 6 Este 14 Nordeste 0 923.7 -2.5 61
2019-12-03 14:00:00 4.5 9 Este 19 Este 0 924.4 -2.3 62
2019-12-03 13:00:00 3.7 11 Este 28 Sudeste 0 925.4 -1.4 64
2019-12-03 12:00:00 1.6 8 Este 15 Este 0 926.2 -0.4 77
2019-12-03 11:00:00 -2 6 Sudeste 12 Sudeste 0 926.7 -0.1 85
2019-12-03 10:00:00 -3.4 6 Sudeste 12 Sudeste 0 926.8 0 86
2019-12-03 09:00:00 -4.3 3 Sudeste 5 Este 0 926.6 -0.5 86
2019-12-03 08:00:00 -4.7 0 Calma 3 Sudeste 0 926.8 -0.6 85
2019-12-03 07:00:00 -4.3 3 Sudeste 6 Sudeste 0 926.8 -0.7 85
2019-12-03 06:00:00 -4.1 0 Calma 4 Este 0 927.1 -0.5 85
2019-12-03 05:00:00 -3.6 3 Sudeste 8 Sudeste 0 927.4 -0.3 85
2019-12-03 04:00:00 -3.2 0 Calma 7 Sudeste 0 927.5 -0.7 84
2019-12-03 03:00:00 -2.9 0 Calma 5 Sudoeste 0 927.6 -0.8 83
2019-12-03 02:00:00 -2.4 2 Sur 6 Sudoeste 0 927.7 -0.7 82
2019-12-03 01:00:00 -1.6 0 Calma 9 Noroeste 0 928.2 -0.3 81
2019-12-03 00:00:00 -1.4 2 Noroeste 7 Norte 0 928.4 -0.2 81
2019-12-02 23:00:00 -0.4 0 Calma 6 Nordeste 0 928.4 0.1 77
2019-12-02 22:00:00 0.6 2 Norte 8 Norte 0 928.5 0.9 78
2019-12-02 21:00:00 2.4 2 Nordeste 13 Este 0 928.6 1.8 73
2019-12-02 20:00:00 3.2 3 Este 19 Nordeste 0 928.3 1.8 70
2019-12-02 19:00:00 4.2 6 Nordeste 23 Nordeste 0 927.6 1.6 69
2019-12-02 18:00:00 5.9 10 Norte 37 Norte 0 926.8 1.1 65
2019-12-02 17:00:00 7.4 14 Norte 33 Norte 0 926.5 0.6 64
2019-12-02 16:00:00 9.7 14 Norte 31 Norte 0 926 -0.5 49
2019-12-02 15:00:00 9.3 9 Nordeste 27 Nordeste 0 925.7 -1.3 51
2019-12-02 14:00:00 9.4 14 Nordeste 32 Nordeste 0 925.9 -1.1 51
2019-12-02 13:00:00 8.1 5 Este 13 Este 0 926.5 0.1 58
2019-12-02 12:00:00 6.1 3 Sudeste 12 Sudeste 0 927 1 72
2019-12-02 11:00:00 3 5 Este 8 Sudeste 0 927 1.5 87
2019-12-02 10:00:00 0.4 2 Este 5 Sudeste 0 926.4 1.4 87
2019-12-02 09:00:00 -1.3 0 Calma 5 Noroeste 0 926 1.4 87
2019-12-02 08:00:00 -1.3 2 Noroeste 6 Sudeste 0 925.5 1.1 87
2019-12-02 07:00:00 -1 2 Este 6 Este 0 925 0.9 87
2019-12-02 06:00:00 -0.1 4 Este 11 Sudeste 0 924.6 0.9 86
2019-12-02 05:00:00 -0.3 3 Este 5 Sudeste 0 924.4 0.9 85
2019-12-02 04:00:00 0.3 0 Calma 5 Sudoeste 0 924.1 0.7 85
2019-12-02 03:00:00 1.3 0 Calma 11 Nordeste 0 923.7 0.3 84
2019-12-02 02:00:00 1.9 0 Calma 5 Este 0 923.5 0.4 82
2019-12-02 01:00:00 4.1 3 Noroeste 10 Nordeste 0 923.4 0.8 79
2019-12-02 00:00:00 5.4 4 Nordeste 9 Este 0 923.4 1.1 79
2019-12-01 23:00:00 5.9 0 Calma 9 Este 0 923.1 1.4 80
2019-12-01 22:00:00 6.2 5 Nordeste 15 Nordeste 0 922.6 1.5 79
2019-12-01 21:00:00 5.9 2 Este 10 Este 0 922.3 1.3 84
2019-12-01 20:00:00 6.5 4 Este 12 Este 0 921.7 1 83
2019-12-01 19:00:00 6.6 2 Este 9 Noroeste 0 921.1 0.5 82
2019-12-01 18:00:00 6.8 3 Noroeste 6 Noroeste 0 921 0.4 80
2019-12-01 17:00:00 7.2 2 Norte 4 Norte 0 920.7 0 78
2019-12-01 16:00:00 7.4 2 Nordeste 13 Este 0.2 920.6 -0.4 72
2019-12-01 15:00:00 7.7 6 Nordeste 13 Este 0 920.6 -0.8 71
2019-12-01 14:00:00 7.6 6 Este 12 Este 0 920.7 -0.5 67
2019-12-01 13:00:00 7.5 4 Este 9 Este 0 921 0.2 68
2019-12-01 12:00:00 6.3 5 Este 19 Este 0 921.4 0.9 74
2019-12-01 11:00:00 5.3 7 Este 19 Sudeste 0 921.2 0.6 79
2019-12-01 10:00:00 5 9 Sudeste 19 Este 0 920.8 0.4 80
2019-12-01 09:00:00 4.5 5 Este 8 Este 0 920.5 0 86
2019-12-01 08:00:00 4.1 5 Sudeste 8 Este 0 920.6 -0.4 85
2019-12-01 07:00:00 4.1 3 Este 10 Sudeste 0 920.4 -1.2 85
2019-12-01 06:00:00 4 3 Este 6 Sur 0 920.5 -1.7 86
2019-12-01 05:00:00 4.3 2 Sudeste 10 Este 0 921 -1.6 86
2019-12-01 04:00:00 4.2 2 Sudoeste 17 Sudoeste 0 921.6 -1.6 87
2019-12-01 03:00:00 2.6 0 Calma 12 Oeste 0 922.2 -1.3 86
2019-12-01 02:00:00 2.6 2 Sudoeste 8 Sudoeste 0 922.6 -0.7 85
2019-12-01 01:00:00 3.4 4 Sudoeste 9 Oeste 0 923.2 -0.7 83
2019-12-01 00:00:00 4.3 3 Oeste 23 Sudoeste 0 923.5 -0.9 81
2019-11-30 23:00:00 5.3 10 Sudoeste 23 Sudoeste 0 923.3 -0.8 78
2019-11-30 22:00:00 6.5 14 Sudoeste 28 Sudoeste 0 923.9 -0.1 75
2019-11-30 21:00:00 7.1 9 Sudoeste 30 Sudoeste 0 924.4 -0.2 77
2019-11-30 20:00:00 7.5 12 Sudoeste 23 Sudoeste 0 924.1 0.4 79
2019-11-30 19:00:00 8.1 4 Sur 13 Noroeste 0.4 924 0.7 85
2019-11-30 18:00:00 8.6 6 Noroeste 26 Oeste 1.8 924.6 1.4 84
2019-11-30 17:00:00 9.2 10 Oeste 36 Oeste 0.6 923.7 -0.1 83
2019-11-30 16:00:00 11.4 11 Oeste 50 Oeste 0.8 923.3 -1.5 80
2019-11-30 15:00:00 12.5 17 Sudoeste 49 Sudoeste 0.2 923.2 -2.5 81
2019-11-30 14:00:00 14.2 17 Sudoeste 47 Sudoeste 0 923.8 -2.4 70
2019-11-30 13:00:00 13.9 25 Sudoeste 49 Sudoeste 0 924.8 -1.8 67
2019-11-30 12:00:00 14.8 20 Sudoeste 41 Sudoeste 0 925.7 -1 62
2019-11-30 11:00:00 12.9 15 Sudoeste 39 Sudoeste 0 926.2 -0.7 69
2019-11-30 10:00:00 12.1 17 Sudoeste 35 Sudoeste 0 926.6 -0.6 72
2019-11-30 09:00:00 10.9 12 Sudoeste 23 Sudoeste 0 926.7 -0.8 80
2019-11-30 08:00:00 9.9 2 Norte 14 Oeste 0 926.9 -0.8 84
2019-11-30 07:00:00 10.7 10 Sudoeste 22 Sudoeste 0 927.2 -1.1 83
2019-11-30 06:00:00 11 7 Sudoeste 24 Sudoeste 0 927.5 -1 85
2019-11-30 05:00:00 10.8 10 Sudoeste 24 Sudoeste 0 927.7 -1.1 87
2019-11-30 04:00:00 10.6 10 Sudoeste 21 Sudoeste 0 928.3 -1 88
2019-11-30 03:00:00 8.7 3 Sudeste 7 Este 0.2 928.5 -1 88
2019-11-30 02:00:00 8.4 4 Este 8 Este 0.4 928.8 -0.8 88
2019-11-30 01:00:00 7.9 3 Este 9 Este 0.2 929.3 -0.3 87
2019-11-30 00:00:00 7.8 5 Este 9 Sudeste 0 929.5 0 87
2019-11-29 23:00:00 6.3 3 Este 6 Nordeste 0 929.6 0.2 86
2019-11-29 22:00:00 6 0 Calma 4 Oeste 0 929.6 0.2 83
2019-11-29 21:00:00 7.5 2 Sur 6 Oeste 0 929.5 0.5 82
2019-11-29 20:00:00 8.7 0 Calma 9 Sudoeste 0 929.4 0.4 80
2019-11-29 19:00:00 10.4 2 Sudoeste 7 Sudoeste 0 929.4 0.7 76
2019-11-29 18:00:00 12.7 0 Calma 15 Oeste 0 929 0.3 71
2019-11-29 17:00:00 13.9 8 Oeste 22 Oeste 0 929 0 65
2019-11-29 16:00:00 14.2 8 Sudoeste 21 Oeste 0 928.7 -0.6 62
2019-11-29 15:00:00 13.9 4 Oeste 18 Oeste 0 928.7 -0.9 66
2019-11-29 14:00:00 13.8 7 Oeste 22 Oeste 0 929 -0.4 68
2019-11-29 13:00:00 13 7 Oeste 15 Oeste 0 929.3 0.3 74
2019-11-29 12:00:00 12.3 4 Oeste 10 Sudoeste 0 929.6 1.2 77
2019-11-29 11:00:00 11.9 6 Sudoeste 14 Sudoeste 0 929.4 1.9 80
2019-11-29 10:00:00 11.1 4 Sudoeste 11 Sudoeste 0 929 2.2 85
2019-11-29 09:00:00 10.6 2 Oeste 6 Oeste 0 928.4 2 84
2019-11-29 08:00:00 10.7 3 Oeste 11 Oeste 0 927.5 1.3 84
2019-11-29 07:00:00 10.8 6 Oeste 21 Oeste 0 926.8 1 83
2019-11-29 06:00:00 10.8 9 Oeste 20 Oeste 0 926.4 0.9 84
2019-11-29 05:00:00 10.6 7 Oeste 16 Oeste 0 926.2 0.8 84
2019-11-29 04:00:00 10.6 8 Oeste 20 Sudoeste 0 925.8 0.6 83
2019-11-29 03:00:00 10.4 8 Oeste 20 Oeste 0 925.5 0.6 84
2019-11-29 02:00:00 10.4 10 Oeste 25 Sudoeste 0 925.4 0.9 84
2019-11-29 01:00:00 10.3 10 Sudoeste 24 Sudoeste 0 925.2 1.4 82
2019-11-29 00:00:00 10.4 10 Sudoeste 32 Oeste 0 924.9 1.1 80
2019-11-28 23:00:00 11 12 Oeste 39 Sudoeste 0 924.5 0.9 72
2019-11-28 22:00:00 10.9 16 Sudoeste 36 Sudoeste 0 923.8 0.4 72
2019-11-28 21:00:00 10.8 15 Sudoeste 39 Sudoeste 0 923.8 0.8 71
2019-11-28 20:00:00 11.4 15 Sudoeste 39 Sudoeste 0 923.6 0.4 68
2019-11-28 19:00:00 11.3 16 Sudoeste 31 Oeste 0 923.4 0.5 69
2019-11-28 18:00:00 11.2 15 Sudoeste 33 Sudoeste 0 923 -0.5 66
2019-11-28 17:00:00 11.4 15 Sudoeste 37 Sudoeste 0 923.2 -0.6 65
2019-11-28 16:00:00 11.6 14 Sudoeste 36 Sudoeste 0 922.9 -1.5 66
2019-11-28 15:00:00 11.9 14 Sudoeste 33 Oeste 0 923.5 -1.4 67
2019-11-28 14:00:00 11.4 14 Sudoeste 43 Oeste 0 923.8 -1.2 75
2019-11-28 13:00:00 11.9 13 Sudoeste 39 Sudoeste 0 924.4 -0.4 67
2019-11-28 12:00:00 11.2 19 Sudoeste 41 Sudoeste 0 924.9 0.8 69
2019-11-28 11:00:00 10.4 16 Sudoeste 37 Oeste 0 925 1.5 72
2019-11-28 10:00:00 9.7 19 Sudoeste 35 Sudoeste 0 924.8 1.7 75
2019-11-28 09:00:00 9.2 15 Sudoeste 38 Sudoeste 0 924.1 1.2 77
2019-11-28 08:00:00 8.8 18 Sudoeste 36 Sudoeste 0 923.5 0.7 80
2019-11-28 07:00:00 8.4 12 Sudoeste 32 Sudoeste 0 923.1 0.5 83
2019-11-28 06:00:00 8.8 18 Sudoeste 34 Sudoeste 0 922.9 0.4 79
2019-11-28 05:00:00 9 17 Sudoeste 38 Sudoeste 0 922.8 0.4 76
2019-11-28 04:00:00 8.9 17 Sudoeste 42 Sudoeste 0 922.6 0.1 77
2019-11-28 03:00:00 9.1 18 Sudoeste 41 Sudoeste 0 922.5 0 77
2019-11-28 02:00:00 9.1 18 Sudoeste 36 Oeste 0 922.4 0.3 75
2019-11-28 01:00:00 9.1 14 Oeste 41 Oeste 0 922.5 0.9 75
2019-11-28 00:00:00 9.2 17 Sudoeste 39 Oeste 0 922.5 1 76
2019-11-27 23:00:00 9.4 17 Sudoeste 40 Sudoeste 0 922.1 0.7 73
2019-11-27 22:00:00 9.4 14 Oeste 37 Oeste 0 921.6 0.6 71
2019-11-27 21:00:00 9.4 16 Sudoeste 39 Sudoeste 0 921.5 1.1 70
2019-11-27 20:00:00 9.6 13 Sudoeste 33 Sudoeste 0 921.4 1 69
2019-11-27 19:00:00 9.8 15 Sudoeste 33 Sudoeste 0 921 1 70
2019-11-27 18:00:00 9.9 17 Sudoeste 33 Sudoeste 0 920.4 0.6 70
2019-11-27 17:00:00 10.3 14 Sudoeste 39 Sudoeste 0 920.4 0 67
2019-11-27 16:00:00 10.6 15 Sudoeste 39 Oeste 0 920 -1 64
2019-11-27 15:00:00 11.5 17 Sudoeste 47 Sudoeste 0 919.8 -1.8 63
2019-11-27 14:00:00 11 19 Sudoeste 46 Oeste 0 920.4 -1.3 63
2019-11-27 06:00:00 7.8 20 Sudoeste 48 Sudoeste 0 918.9 0.4 74
2019-11-27 05:00:00 8 16 Sudoeste 35 Oeste 0 918.9 1.2 74
2019-11-27 04:00:00 8.5 13 Oeste 39 Sudoeste 0 918.9 1.5 74
2019-11-27 03:00:00 8.8 12 Oeste 42 Oeste 0 918.5 1.1 78
2019-11-27 02:00:00 8.6 10 Oeste 42 Oeste 0 917.7 0.8 82
2019-11-27 01:00:00 9 20 Oeste 53 Oeste 0.4 917.4 0.8 83
2019-11-27 00:00:00 9.6 17 Oeste 42 Oeste 3.2 917.4 0.8 84
2019-11-26 23:00:00 11.3 20 Sudoeste 46 Sudoeste 0.4 916.9 0.6 75
2019-11-26 22:00:00 12.1 22 Sudoeste 45 Oeste 0 916.6 1.1 69
2019-11-26 21:00:00 12 20 Sudoeste 42 Sudoeste 0 916.6 0.8 75
2019-11-26 20:00:00 12.5 24 Sudoeste 60 Sudoeste 0 916.3 -0.1 75
2019-11-26 19:00:00 14.2 23 Sudoeste 44 Sudoeste 0 915.5 -1.3 62
2019-11-26 18:00:00 13.9 19 Sudoeste 40 Sudoeste 0 915.8 -1.8 65
2019-11-26 17:00:00 13.9 19 Sudoeste 45 Sudoeste 0 916.4 -2.3 74
2019-11-26 16:00:00 16.4 15 Sudoeste 31 Sudoeste 0 916.8 -2.9 61
2019-11-26 15:00:00 15.7 18 Sudoeste 45 Sudoeste 0 917.6 -3.4 65
2019-11-26 14:00:00 15.6 22 Sudoeste 42 Sudoeste 0 918.7 -3 60
2019-11-26 13:00:00 14.3 16 Sudoeste 34 Sudoeste 0 919.7 -2.4 71
2019-11-26 12:00:00 12.7 7 Sudoeste 28 Sudoeste 0 921 -1.1 82
2019-11-26 11:00:00 10.6 5 Este 10 Este 0.6 921.7 -0.4 86
2019-11-26 10:00:00 9.6 4 Este 12 Este 0 922.1 -0.1 84
2019-11-26 09:00:00 9.3 3 Sudeste 9 Sudeste 0 922.1 -0.4 83
2019-11-26 08:00:00 9.3 4 Este 8 Este 0 922.1 -1 82
2019-11-26 07:00:00 9.2 0 Calma 9 Oeste 0 922.2 -1.4 81
2019-11-26 06:00:00 9.1 2 Noroeste 10 Sudoeste 0 922.5 -1.7 81
2019-11-26 05:00:00 8.8 2 Sudoeste 11 Sudoeste 0 923.1 -1 81
2019-11-26 04:00:00 8.8 4 Sur 9 Sudoeste 0 923.6 -1.3 81
2019-11-26 03:00:00 8.7 3 Oeste 8 Oeste 0 924.2 -0.9 82
2019-11-26 02:00:00 9.1 5 Sudoeste 16 Sudoeste 0 924.1 -0.8 80
2019-11-26 01:00:00 9 5 Sudoeste 21 Sudoeste 0 924.9 -0.1 80
2019-11-26 00:00:00 9.5 13 Sudoeste 25 Sudoeste 0 925.1 0.1 78
2019-11-25 23:00:00 9.5 12 Sudoeste 23 Sudoeste 0 924.9 0.2 78
2019-11-25 22:00:00 9.1 9 Sudoeste 16 Sudoeste 0 925 0.8 78
2019-11-25 21:00:00 9.3 7 Oeste 21 Sudoeste 0 925 1 74
2019-11-25 20:00:00 9.2 7 Sudoeste 16 Oeste 0 924.7 0.9 75
2019-11-25 19:00:00 9.8 6 Sudoeste 15 Sudoeste 0 924.2 0.8 74
2019-11-25 18:00:00 10.8 6 Sudoeste 18 Oeste 0 924 1 70
2019-11-25 17:00:00 11.7 9 Oeste 32 Oeste 0 923.8 0.7 65
2019-11-25 16:00:00 12.5 11 Oeste 37 Oeste 0 923.4 0.3 65
2019-11-25 15:00:00 12.3 10 Oeste 33 Oeste 0 923 -0.6 73
2019-11-25 14:00:00 12.1 6 Oeste 36 Sudoeste 0 923.1 -0.3 77
2019-11-25 13:00:00 12.6 10 Oeste 35 Sudoeste 0 923.1 0.2 72
2019-11-25 12:00:00 11.6 16 Sudoeste 33 Sudoeste 0 923.6 1 76
2019-11-25 11:00:00 11.3 15 Sudoeste 36 Oeste 0 923.4 1.3 77
2019-11-25 10:00:00 10.1 14 Sudoeste 28 Sudoeste 0 922.9 1 82
2019-11-25 09:00:00 9.4 6 Sudoeste 23 Oeste 0 922.6 1.4 83
2019-11-25 08:00:00 9.3 12 Sudoeste 30 Sudoeste 0 922.1 0.8 82
2019-11-25 07:00:00 9.5 13 Sudoeste 36 Sudoeste 0 921.9 0.6 81
2019-11-25 06:00:00 9.8 15 Sudoeste 42 Sudoeste 0 921.2 -0.1 82
2019-11-25 05:00:00 9.6 18 Sudoeste 38 Sudoeste 0 921.3 0.3 83
2019-11-25 04:00:00 9.5 13 Sudoeste 31 Oeste 0.4 921.3 0.3 87
2019-11-25 03:00:00 9 8 Sudoeste 33 Sudoeste 0 921.3 0.1 86
2019-11-25 02:00:00 8.9 9 Sudoeste 21 Oeste 0 921 -0.6 85
2019-11-25 01:00:00 8.4 6 Oeste 23 Sudoeste 0.8 921 -1.1 84
2019-11-25 00:00:00 8.3 6 Sudoeste 18 Sudoeste 0 921.2 -1 79
2019-11-24 23:00:00 8 7 Sudoeste 18 Sudoeste 0 921.6 -1.2 76
2019-11-24 22:00:00 7.7 9 Sudoeste 24 Sudoeste 0 922.1 -0.9 75
2019-11-24 21:00:00 7.4 5 Sudoeste 18 Sudoeste 0 922.2 -0.3 76
2019-11-24 20:00:00 7.2 4 Sudoeste 27 Sudoeste 0 922.8 -0.2 75
2019-11-24 19:00:00 7.5 10 Sudoeste 18 Sudoeste 0 923 0 71
2019-11-24 18:00:00 7.7 8 Sudoeste 26 Oeste 0 922.5 -0.6 69
2019-11-24 17:00:00 8 9 Oeste 28 Oeste 0 923 -0.5 67
2019-11-24 16:00:00 8.4 9 Oeste 27 Oeste 0 923 -1.5 65
2019-11-24 15:00:00 8.1 11 Sudoeste 23 Sudoeste 0 923.1 -1.9 62
2019-11-24 14:00:00 7.4 12 Sudoeste 28 Sudoeste 0 923.5 -1.5 63
2019-11-24 13:00:00 7.3 14 Sudoeste 31 Sudoeste 0 924.5 0.7 65
2019-11-24 12:00:00 6.2 11 Oeste 27 Oeste 0 925 1.3 71
2019-11-24 11:00:00 5.6 11 Oeste 29 Oeste 0 925 2.1 72
2019-11-24 10:00:00 4.4 5 Sudoeste 22 Oeste 0 923.8 1.5 79
2019-11-24 09:00:00 3.6 4 Sudoeste 16 Oeste 0 923.7 1.7 82
2019-11-24 08:00:00 3.4 6 Sudoeste 16 Oeste 0 922.9 1.5 82
2019-11-24 07:00:00 3.6 6 Sudoeste 18 Oeste 0 922.3 0.8 82
2019-11-24 06:00:00 3.4 5 Oeste 18 Oeste 0 922 1 82
2019-11-24 05:00:00 3.7 9 Oeste 29 Oeste 0 921.4 0.7 82
2019-11-24 04:00:00 3.1 8 Oeste 21 Oeste 0 921.5 1.1 83
2019-11-24 03:00:00 3.1 8 Sudoeste 21 Oeste 0 921 0.7 81
2019-11-24 02:00:00 3.4 8 Oeste 24 Oeste 0 920.7 0.7 79
2019-11-24 01:00:00 3.6 10 Oeste 25 Oeste 0 920.4 1.1 80
2019-11-24 00:00:00 4 8 Oeste 21 Oeste 0 920.3 1.6 77
2019-11-23 23:00:00 4.9 11 Oeste 25 Sudoeste 0 920 2 73
2019-11-23 22:00:00 4.7 5 Sudoeste 20 Oeste 0 919.3 2.1 72
2019-11-23 21:00:00 5.8 7 Sudoeste 23 Oeste 0 918.7 2.6 67
2019-11-23 20:00:00 6.3 9 Oeste 23 Oeste 0 918 2.8 64
2019-11-23 19:00:00 6.9 11 Oeste 33 Oeste 0 917.2 2.9 62
2019-11-23 18:00:00 7.6 11 Oeste 35 Oeste 0 916.1 2.3 59
2019-11-23 17:00:00 8.8 10 Oeste 42 Oeste 0 915.2 2 54
2019-11-23 16:00:00 9.3 15 Oeste 47 Oeste 0 914.3 1.7 51
2019-11-23 15:00:00 9.8 13 Oeste 46 Oeste 0 913.8 1.7 51
2019-11-23 14:00:00 9.6 17 Oeste 55 Oeste 0 913.2 2.2 53
2019-11-23 13:00:00 8.5 17 Oeste 56 Oeste 0 912.6 3 59
2019-11-23 12:00:00 7.8 14 Oeste 59 Oeste 0 912.1 3.8 62
2019-11-23 11:00:00 6.4 21 Oeste 55 Oeste 0 911 4 65
2019-11-23 10:00:00 5.5 16 Oeste 55 Oeste 0 909.6 4 67
2019-11-23 09:00:00 4.5 19 Oeste 49 Oeste 0 908.3 4 72
2019-11-23 08:00:00 4.6 20 Oeste 48 Oeste 0 907 3.5 73
2019-11-23 07:00:00 4.9 19 Oeste 59 Oeste 0 905.6 2.9 74
2019-11-23 06:00:00 5.2 22 Oeste 59 Oeste 0 904.3 2.2 74
2019-11-23 05:00:00 5.4 22 Oeste 53 Oeste 0 903.5 1.9 76
2019-11-23 04:00:00 5 19 Sudoeste 48 Oeste 0.2 902.7 1.1 79
2019-11-23 03:00:00 6.3 22 Sudoeste 55 Sudoeste 0 902.1 0.6 73
2019-11-23 02:00:00 7 18 Sudoeste 57 Oeste 0 901.6 0.1 71
2019-11-23 01:00:00 7.6 23 Sudoeste 51 Sudoeste 0 901.6 0.1 70
2019-11-23 00:00:00 7.9 24 Sudoeste 47 Sudoeste 0 901.5 0 73
2019-11-22 23:00:00 7.8 19 Sudoeste 46 Sudoeste 0 901.5 0.1 76
2019-11-22 22:00:00 7.8 23 Sudoeste 48 Sudoeste 0 901.5 0.4 74
2019-11-22 21:00:00 7.8 17 Sudoeste 38 Sudoeste 0 901.5 1.5 79
2019-11-22 20:00:00 7.9 13 Sudoeste 49 Sudoeste 0.2 901.4 1.8 82
2019-11-22 19:00:00 9.5 16 Sudoeste 50 Oeste 0 901.1 1.7 75
2019-11-22 18:00:00 10.5 21 Oeste 58 Oeste 0.2 900 -0.6 72
2019-11-22 17:00:00 11.6 27 Sudoeste 60 Sudoeste 0.2 899.6 -1.4 73
2019-11-22 16:00:00 11.9 17 Sudoeste 42 Sudoeste 0 899.4 -2.8 71
2019-11-22 15:00:00 11.3 15 Sur 49 Sudoeste 0.4 900.6 -3.1 73
2019-11-22 14:00:00 12.2 22 Sudoeste 54 Sudoeste 0 901 -4.4 63
2019-11-22 13:00:00 11.2 8 Sur 26 Sur 0 902.2 -4.6 64
2019-11-22 12:00:00 9.8 5 Sur 19 Sur 0 903.7 -4.4 71
2019-11-22 11:00:00 8 9 Este 15 Este 0 905.4 -3.7 78
2019-11-22 10:00:00 6.6 5 Este 12 Este 0.4 906.8 -3 85
2019-11-22 09:00:00 5.6 2 Norte 9 Sudeste 0.2 908.1 -2.9 85
2019-11-22 08:00:00 5.4 7 Sudeste 14 Sudeste 0 909.1 -3 84
2019-11-22 07:00:00 5.1 8 Sudeste 13 Sudeste 0 909.8 -3.2 84
2019-11-22 06:00:00 4.9 5 Este 16 Sudeste 0 911 -2.5 84
2019-11-22 05:00:00 4.8 5 Sudeste 10 Sudeste 0.2 912.1 -1.8 84
2019-11-22 04:00:00 4.8 0 Calma 9 Sudeste 0 913 -1.7 82
2019-11-22 03:00:00 5.1 4 Nordeste 7 Nordeste 0 913.5 -1.9 82
2019-11-22 02:00:00 5 2 Este 6 Este 0 913.9 -1.6 81
2019-11-22 01:00:00 4.8 3 Este 6 Nordeste 0 914.7 -1.1 83
2019-11-22 00:00:00 4.5 2 Sur 8 Sur 0 915.4 -0.8 84
2019-11-21 23:00:00 3.8 4 Este 6 Este 0 915.5 -0.5 86
2019-11-21 22:00:00 2.8 3 Este 6 Este 0 915.8 -0.1 83
2019-11-21 21:00:00 3.9 0 Calma 11 Sudoeste 0 916.2 0.3 79
2019-11-21 20:00:00 5.9 7 Sudoeste 16 Sudoeste 0 916 0.4 76
2019-11-21 19:00:00 6.5 8 Sudoeste 14 Sudoeste 0 915.9 0.3 73
2019-11-21 18:00:00 7.5 5 Sudoeste 15 Sudoeste 0 915.9 0.6 69
2019-11-21 17:00:00 9.1 4 Oeste 17 Oeste 0 915.6 0.1 61
2019-11-21 16:00:00 9.3 6 Oeste 31 Oeste 0 915.6 -0.2 61
2019-11-21 15:00:00 8.8 10 Sudoeste 26 Noroeste 0 915.3 -1.3 65
2019-11-21 14:00:00 8.5 10 Oeste 27 Sudoeste 0 915.5 -1.2 72
2019-11-21 13:00:00 7.7 12 Sudoeste 28 Sudoeste 0 915.8 -0.5 75
2019-11-21 12:00:00 7.6 13 Sudoeste 29 Sudoeste 0 916.6 0.3 76
2019-11-21 11:00:00 5.8 11 Sudoeste 22 Sudoeste 0 916.7 0.7 82
2019-11-21 10:00:00 5.4 7 Sudoeste 15 Sudoeste 0 916.3 0.5 80
2019-11-21 09:00:00 5 8 Sudoeste 18 Sudoeste 0 916.3 0.6 80
2019-11-21 08:00:00 -- -- -- -- -- -- -- -- --
2019-11-21 07:00:00 -- -- -- -- -- -- -- -- --
2019-11-21 06:00:00 -- -- -- -- -- -- -- -- --
2019-11-21 05:00:00 -- -- -- -- -- -- -- -- --
2019-11-21 04:00:00 -- -- -- -- -- -- -- -- --
2019-11-21 03:00:00 -- -- -- -- -- -- -- -- --
2019-11-21 02:00:00 -- -- -- -- -- -- -- -- --
2019-11-21 01:00:00 -- -- -- -- -- -- -- -- --
2019-11-21 00:00:00 -- -- -- -- -- -- -- -- --
2019-11-20 23:00:00 -- -- -- -- -- -- -- -- --
2019-11-20 22:00:00 -- -- -- -- -- -- -- -- --
2019-11-20 21:00:00 -- -- -- -- -- -- -- -- --
2019-11-20 20:00:00 -- -- -- -- -- -- -- -- --
2019-11-20 19:00:00 5 3 Sur 18 Sudoeste 0.6 916.3 0 83
2019-11-20 18:00:00 5.5 6 Sudoeste 17 Sudoeste 0.4 916.5 -0.1 81
2019-11-20 17:00:00 5.8 8 Sudoeste 31 Sudoeste 0.6 916.5 -0.8 80
2019-11-20 16:00:00 6.6 0 Calma 6 Norte 0 916.3 -1.7 81
2019-11-20 15:00:00 6.8 4 Norte 10 Sudoeste 0 916.6 -2.2 80
2019-11-20 14:00:00 6.9 5 Sudoeste 20 Sur 0 917.3 -1.7 75
2019-11-20 13:00:00 6.9 7 Sudoeste 18 Sudoeste 0 918 -1 66
2019-11-20 12:00:00 5.7 2 Sur 13 Nordeste 0 918.8 -0.2 68
2019-11-20 11:00:00 3.8 9 Este 20 Este 0 919 -0.1 72
2019-11-20 10:00:00 2.3 13 Este 23 Este 0 919 -0.4 76
2019-11-20 09:00:00 0.6 6 Este 15 Este 0 919 -0.9 81
2019-11-20 08:00:00 0.4 7 Este 13 Sudeste 0 919.1 -1.1 83
2019-11-20 07:00:00 -0.1 6 Este 11 Este 0 919.4 -1.4 85
2019-11-20 06:00:00 0.2 3 Sudeste 6 Este 0 919.9 -1.3 85
2019-11-20 05:00:00 0.4 4 Este 10 Este 0 920.2 -1.3 85
2019-11-20 04:00:00 0.5 4 Este 10 Este 0 920.8 -1.6 86
2019-11-20 03:00:00 -0.3 6 Este 9 Este 0 921.2 -1.6 86
2019-11-20 02:00:00 -0.7 6 Sudeste 9 Sudeste 0 921.5 -1.8 86
2019-11-20 01:00:00 -0.3 5 Este 9 Este 0 922.4 -1 86
2019-11-20 00:00:00 -0.1 5 Este 10 Sudeste 0 922.8 -0.6 85
2019-11-19 23:00:00 0.6 4 Este 8 Este 0 923.3 -0.2 85
2019-11-19 22:00:00 0.6 4 Este 6 Sudeste 0 923.4 -0.1 83
2019-11-19 21:00:00 1.2 2 Este 4 Este 0 923.4 -0.1 81
2019-11-19 20:00:00 2.4 2 Este 5 Este 0 923.5 -0.2 79
2019-11-19 19:00:00 3.7 3 Sudoeste 5 Sudoeste 0 923.5 -0.2 74
2019-11-19 18:00:00 5.8 0 Calma 8 Oeste 0 923.5 -0.6 68
2019-11-19 17:00:00 7.2 4 Oeste 14 Sudoeste 0 923.7 -0.9 65
2019-11-19 16:00:00 7.9 4 Oeste 17 Oeste 0 923.7 -1.6 61
2019-11-19 15:00:00 8.5 5 Oeste 19 Oeste 0 924.1 -1.8 61
2019-11-19 14:00:00 8 4 Oeste 16 Oeste 0 924.6 -1.9 65
2019-11-19 13:00:00 7.1 5 Oeste 14 Oeste 0 925.3 -1.4 69
2019-11-19 12:00:00 4.8 0 Calma 8 Este -- 925.9 -0.7 78
2019-11-19 11:00:00 1.4 3 Este 12 Sudeste 0 926.5 0.3 86
2019-11-19 10:00:00 -0.8 3 Este 8 Este 0 926.7 0.5 87
2019-11-19 09:00:00 -2.7 3 Este 6 Sudeste 0 926.6 0.4 87
2019-11-19 08:00:00 -3.4 2 Este 5 Este 0 926.2 -0.1 86
2019-11-19 07:00:00 -3.3 2 Este 4 Este 0 926.2 -0.3 86
2019-11-19 06:00:00 -3 0 Calma 4 Sudoeste 0 926.2 -0.2 86
2019-11-19 05:00:00 -2.8 2 Sudoeste 4 Sudoeste 0 926.3 -0.2 86
2019-11-19 04:00:00 -2.3 2 Sur 4 Sudoeste 0 926.5 -0.6 86
2019-11-19 03:00:00 -1.6 2 Nordeste 12 Sudoeste 0 926.4 -1.1 86
2019-11-19 02:00:00 -1.3 3 Sudoeste 7 Sudoeste 0 926.5 -1.1 85
2019-11-19 01:00:00 -0.1 0 Calma 5 Este 0 927.1 0 84
2019-11-19 00:00:00 1.3 2 Oeste 5 Sudoeste 0 927.5 0.7 84
2019-11-18 23:00:00 1.5 0 Calma 5 Sudoeste 0 927.6 1.2 83
2019-11-18 22:00:00 1.3 2 Sudoeste 8 Sudoeste 0 927.1 1 82
2019-11-18 21:00:00 1.6 0 Calma 9 Noroeste 0 926.8 1.2 80
2019-11-18 20:00:00 2.3 3 Oeste 7 Noroeste 0 926.4 1.2 77
2019-11-18 19:00:00 4.2 4 Sudoeste 16 Noroeste 0 926.1 0.9 71
2019-11-18 18:00:00 5.4 5 Noroeste 24 Norte 0 925.6 0.3 66
2019-11-18 17:00:00 6.3 11 Noroeste 32 Noroeste 0 925.2 0.4 58
2019-11-18 16:00:00 6.5 11 Noroeste 29 Noroeste 0 925.2 0.4 62
2019-11-18 15:00:00 6.3 13 Norte 25 Noroeste 0 925.3 0.1 63
2019-11-18 14:00:00 6.4 11 Norte 27 Norte 0 924.8 -0.1 62
2019-11-18 13:00:00 5.9 10 Norte 23 Noroeste 0 924.8 0.3 67
2019-11-18 12:00:00 4.5 5 Oeste 20 Noroeste 0 925.2 1.5 79
2019-11-18 11:00:00 3.4 6 Oeste 17 Oeste 0 924.9 1.9 83
2019-11-18 10:00:00 2 5 Sudoeste 12 Sudoeste 0 924.5 1.8 86
2019-11-18 09:00:00 0.8 4 Sudoeste 12 Oeste 0 923.7 1.6 87
2019-11-18 08:00:00 0 5 Oeste 10 Sudoeste 0 923 1.4 87
2019-11-18 07:00:00 -0.8 3 Noroeste 8 Oeste 0 922.7 1.6 86
2019-11-18 06:00:00 -0.9 3 Oeste 6 Sudoeste 0 922.1 1.4 85
2019-11-18 05:00:00 0.2 0 Calma 6 Oeste 0 921.6 1.2 85
2019-11-18 04:00:00 1.2 3 Oeste 12 Oeste 0 921.1 0.8 85
2019-11-18 03:00:00 1.6 6 Oeste 12 Oeste 0 920.7 0.8 84
2019-11-18 02:00:00 2.1 3 Oeste 14 Oeste 0 920.4 1.1 83
2019-11-18 01:00:00 2 5 Oeste 12 Oeste 0 920.3 1.2 84
2019-11-18 00:00:00 2 6 Oeste 16 Oeste 0.2 919.9 0.9 81
2019-11-17 23:00:00 2.6 7 Oeste 18 Oeste 0 919.3 0.7 80
2019-11-17 22:00:00 2.9 6 Oeste 13 Oeste 0 919.1 1 82
2019-11-17 21:00:00 3.8 4 Oeste 21 Oeste 0 919 0.9 81
2019-11-17 20:00:00 5.1 6 Oeste 19 Oeste 0 918.6 0.4 84
2019-11-17 19:00:00 5.6 5 Oeste 13 Oeste 0 918.1 -0.4 83
2019-11-17 18:00:00 7 8 Oeste 22 Oeste 0 918.1 -0.8 80
2019-11-17 17:00:00 7.9 9 Oeste 30 Oeste 0 918.2 -1.2 84
2019-11-17 16:00:00 7.8 12 Oeste 30 Oeste 0 918.5 -1.5 85
2019-11-17 15:00:00 7.5 13 Oeste 36 Oeste 0 918.9 -1.7 85
2019-11-17 14:00:00 6.8 13 Oeste 32 Oeste 0 919.4 -1.8 86
2019-11-17 13:00:00 6.2 12 Oeste 28 Oeste 0 920 -1.7 85
2019-11-17 12:00:00 5.5 10 Sudoeste 29 Oeste 0 920.6 -1.4 85
2019-11-17 11:00:00 4.9 13 Sudoeste 29 Oeste 0 921.2 -0.5 85
2019-11-17 10:00:00 3.9 11 Sudoeste 24 Sudoeste 0.2 921.7 -0.4 84
2019-11-17 09:00:00 3.7 12 Sudoeste 29 Sudoeste 0 922 -0.6 80
2019-11-17 08:00:00 3.5 12 Sudoeste 27 Sudoeste 0 921.7 -1.1 77
2019-11-17 07:00:00 3.3 10 Sudoeste 20 Sudoeste 0 922.1 -0.7 77
2019-11-17 06:00:00 3.1 6 Oeste 24 Oeste 0 922.6 -0.9 77
2019-11-17 05:00:00 3 7 Sudoeste 23 Oeste 0 922.8 -0.8 78
2019-11-17 04:00:00 2.5 9 Sudoeste 20 Sudoeste 0 922.8 -1 78
2019-11-17 03:00:00 2.1 8 Sudoeste 18 Oeste 0 923.5 -0.6 78
2019-11-17 02:00:00 1.2 6 Sudoeste 15 Sudoeste 0 923.6 -0.7 80
2019-11-17 01:00:00 0.6 6 Sudoeste 14 Sudoeste 0 923.8 -0.3 80
2019-11-17 00:00:00 1.2 6 Sudoeste 14 Oeste 0 924.1 0.2 77
2019-11-16 23:00:00 2.1 8 Oeste 18 Oeste 0 924.3 0.4 76
2019-11-16 22:00:00 1.9 3 Oeste 13 Sudoeste 0 924.1 0.5 74
2019-11-16 21:00:00 3.3 8 Sudoeste 15 Sudoeste 0 923.9 0.7 65
2019-11-16 20:00:00 3.9 4 Sudoeste 15 Oeste 0 923.9 1 64
2019-11-16 19:00:00 5.5 6 Oeste 21 Oeste 0 923.6 0.8 59
2019-11-16 18:00:00 6.1 9 Oeste 26 Oeste 0 923.2 0.5 64
2019-11-16 17:00:00 6.8 10 Sudoeste 36 Oeste 0 922.9 0.1 58
2019-11-16 16:00:00 7.6 14 Oeste 35 Oeste 0 922.8 -0.3 55
2019-11-16 15:00:00 7.2 16 Oeste 33 Oeste 0 922.7 -0.9 55
2019-11-16 14:00:00 6.7 15 Sudoeste 36 Oeste 0 922.8 -0.7 59
2019-11-16 13:00:00 5.3 14 Sudoeste 31 Sudoeste 0 923.1 0.1 63
2019-11-16 12:00:00 3.9 12 Sudoeste 27 Sudoeste 0 923.6 1 68
2019-11-16 11:00:00 3.1 13 Sudoeste 30 Sudoeste 0 923.5 2 73
2019-11-16 10:00:00 1.4 4 Sudoeste 14 Sudoeste 0 923 1.6 85
2019-11-16 09:00:00 -0.1 5 Sudoeste 19 Sudoeste 0 922.6 2 86
2019-11-16 08:00:00 -1.5 6 Sudoeste 14 Sudoeste 0 921.5 1.4 86
2019-11-16 07:00:00 -1.8 0 Calma 4 Sudoeste 0 921.4 1.6 85
2019-11-16 06:00:00 -1.2 0 Calma 6 Oeste 0 920.6 1.7 84
2019-11-16 05:00:00 -0.7 2 Oeste 8 Oeste 0 920.1 1.5 82
2019-11-16 04:00:00 0.5 4 Oeste 11 Oeste 0 919.8 1.8 81
2019-11-16 03:00:00 1.3 5 Oeste 16 Oeste 0 918.9 1.3 80
2019-11-16 02:00:00 2.2 4 Oeste 12 Sudoeste 0 918.6 1.5 78
2019-11-16 01:00:00 2.3 5 Oeste 14 Oeste 0 918 1.6 78
2019-11-16 00:00:00 2.9 8 Oeste 17 Oeste 0 917.6 2.2 75
2019-11-15 23:00:00 2.9 5 Oeste 14 Oeste 0 917.1 2.1 75
2019-11-15 22:00:00 3.2 6 Oeste 17 Oeste 0 916.4 2.2 72
2019-11-15 21:00:00 3.7 5 Oeste 22 Oeste 0 915.4 1.8 71
2019-11-15 20:00:00 4.1 5 Oeste 23 Oeste 0 915 1.5 67
2019-11-15 19:00:00 4.9 7 Noroeste 25 Oeste 0 914.2 1.1 64
2019-11-15 18:00:00 5.5 8 Oeste 31 Oeste 0 913.6 0.5 60
2019-11-15 17:00:00 6.1 9 Oeste 34 Oeste 0 913.5 0.4 58
2019-11-15 16:00:00 6.6 10 Oeste 39 Oeste 0 913.1 -0.5 56
2019-11-15 15:00:00 7 9 Oeste 42 Oeste 0 913.1 -1 54
2019-11-15 14:00:00 7.1 16 Oeste 53 Oeste 0 913.1 -1.1 57
2019-11-15 13:00:00 6.6 12 Oeste 41 Oeste 0 913.6 -0.2 59
2019-11-15 12:00:00 5.7 9 Oeste 35 Oeste 0 914.1 0.5 68
2019-11-15 11:00:00 3.3 9 Oeste 31 Oeste 0 914.2 1.2 78
2019-11-15 10:00:00 2.4 7 Oeste 31 Oeste 0 913.8 1.3 82
2019-11-15 09:00:00 1.8 8 Oeste 29 Oeste 0 913.6 1.4 83
2019-11-15 08:00:00 1.8 8 Oeste 28 Oeste 0 913 0.9 83
2019-11-15 07:00:00 2.2 8 Oeste 30 Oeste 0 912.5 0.2 81
2019-11-15 06:00:00 2.3 9 Oeste 32 Oeste 0 912.2 0 81
2019-11-15 05:00:00 2.2 8 Oeste 27 Oeste 0 912.1 0.1 83
2019-11-15 04:00:00 2.3 11 Oeste 26 Oeste 0 912.3 0.3 80
2019-11-15 03:00:00 2.4 7 Oeste 22 Oeste 0 912.2 0.9 79
2019-11-15 02:00:00 2.4 4 Oeste 21 Oeste 0 912 1 80
2019-11-15 01:00:00 2.2 6 Oeste 25 Noroeste 0 912 1.5 81
2019-11-15 00:00:00 2.3 5 Oeste 30 Oeste 0.2 911.3 1.4 81